createdAt,value
2023-04-14T00:01:02.463Z,4.00
2023-04-14T00:03:32.420Z,4.10
2023-04-14T00:06:00.479Z,4.10
2023-04-14T00:08:28.443Z,4.10
2023-04-14T00:10:56.366Z,4.10
2023-04-14T00:13:24.309Z,4.10
2023-04-14T00:15:52.252Z,4.10
2023-04-14T00:18:20.338Z,4.10
2023-04-14T00:20:49.853Z,4.20
2023-04-14T00:23:18.432Z,4.20
2023-04-14T00:25:46.431Z,4.00
2023-04-14T00:28:14.395Z,4.00
2023-04-14T00:30:42.401Z,4.00
2023-04-14T00:33:10.707Z,4.00
2023-04-14T00:35:38.758Z,4.10
2023-04-14T00:38:08.303Z,4.00
2023-04-14T00:40:36.279Z,3.90
2023-04-14T00:43:04.300Z,3.90
2023-04-14T00:45:32.439Z,3.90
2023-04-14T00:48:00.514Z,3.90
2023-04-14T00:50:28.525Z,3.90
2023-04-14T00:52:57.559Z,3.70
2023-04-14T00:55:27.063Z,3.70
2023-04-14T00:57:56.256Z,3.60
2023-04-14T01:00:24.323Z,3.50
2023-04-14T01:02:52.495Z,3.60
2023-04-14T01:05:20.783Z,3.60
2023-04-14T01:07:49.665Z,3.60
2023-04-14T01:10:17.873Z,3.70
2023-04-14T01:13:02.736Z,3.60
2023-04-14T01:15:36.541Z,3.70
2023-04-14T01:18:11.954Z,3.70
2023-04-14T01:20:42.902Z,3.90
2023-04-14T01:23:14.128Z,3.80
2023-04-14T01:26:07.990Z,3.70
2023-04-14T01:29:23.603Z,3.70
2023-04-14T01:32:01.031Z,3.60
2023-04-14T01:34:34.707Z,3.50
2023-04-14T01:37:07.520Z,3.50
2023-04-14T01:39:41.314Z,3.50
2023-04-14T01:42:15.968Z,3.50
2023-04-14T01:44:45.186Z,3.60
2023-04-14T01:47:17.678Z,3.50
2023-04-14T01:49:47.502Z,3.50
2023-04-14T01:52:17.441Z,3.40
2023-04-14T01:54:49.925Z,3.40
2023-04-14T01:57:22.633Z,3.40
2023-04-14T01:59:52.823Z,3.30
2023-04-14T02:02:23.942Z,3.20
2023-04-14T02:04:53.329Z,3.00
2023-04-14T02:07:23.395Z,3.00
2023-04-14T02:09:52.979Z,3.00
2023-04-14T02:12:22.957Z,2.90
2023-04-14T02:14:52.586Z,2.60
2023-04-14T02:17:22.820Z,2.50
2023-04-14T02:19:51.868Z,2.40
2023-04-14T02:22:19.986Z,2.50
2023-04-14T02:24:48.066Z,2.60
2023-04-14T02:27:21.799Z,2.80
2023-04-14T02:29:55.180Z,2.80
2023-04-14T02:32:26.208Z,2.80
2023-04-14T02:35:01.732Z,2.70
2023-04-14T02:37:36.890Z,2.60
2023-04-14T02:40:18.054Z,2.30
2023-04-14T02:42:49.082Z,2.20
2023-04-14T02:45:23.788Z,2.40
2023-04-14T02:47:57.870Z,2.20
2023-04-14T02:50:28.003Z,2.30
2023-04-14T02:52:57.665Z,2.40
2023-04-14T02:55:26.344Z,2.40
2023-04-14T02:57:55.064Z,2.50
2023-04-14T03:00:24.719Z,2.50
2023-04-14T03:02:54.882Z,2.40
2023-04-14T03:05:23.097Z,2.30
2023-04-14T03:07:53.166Z,2.30
2023-04-14T03:10:23.428Z,2.30
2023-04-14T03:12:52.887Z,2.30
2023-04-14T03:15:22.755Z,2.40
2023-04-14T03:17:54.251Z,2.30
2023-04-14T03:20:24.174Z,2.30
2023-04-14T03:22:57.721Z,2.20
2023-04-14T03:25:28.271Z,2.20
2023-04-14T03:27:59.647Z,2.20
2023-04-14T03:30:30.748Z,2.20
2023-04-14T03:33:03.097Z,2.10
2023-04-14T03:35:33.177Z,2.10
2023-04-14T03:38:02.593Z,2.10
2023-04-14T03:40:38.218Z,2.10
2023-04-14T03:43:09.876Z,2.10
2023-04-14T03:45:40.141Z,1.90
2023-04-14T03:48:13.204Z,1.80
2023-04-14T03:50:43.168Z,1.70
2023-04-14T03:53:12.928Z,1.80
2023-04-14T03:55:43.453Z,1.70
2023-04-14T03:58:13.280Z,1.70
2023-04-14T04:00:42.518Z,1.70
2023-04-14T04:03:11.835Z,1.70
2023-04-14T04:05:43.433Z,1.70
2023-04-14T04:08:12.403Z,1.60
2023-04-14T04:10:41.402Z,1.60
2023-04-14T04:13:13.732Z,1.60
2023-04-14T04:15:42.555Z,1.50
2023-04-14T04:18:16.061Z,1.50
2023-04-14T04:20:47.192Z,1.30
2023-04-14T04:23:18.958Z,1.30
2023-04-14T04:25:47.192Z,1.30
2023-04-14T04:28:15.224Z,1.30
2023-04-14T04:30:46.347Z,1.30
2023-04-14T04:33:16.369Z,1.10
2023-04-14T04:35:47.780Z,1.10
2023-04-14T04:38:16.178Z,1.10
2023-04-14T04:40:44.195Z,1.10
2023-04-14T04:43:12.248Z,1.00
2023-04-14T04:45:57.306Z,0.90
2023-04-14T04:48:25.347Z,0.80
2023-04-14T04:50:55.045Z,0.70
2023-04-14T04:53:23.042Z,0.70
2023-04-14T04:55:50.950Z,0.70
2023-04-14T04:58:18.944Z,0.50
2023-04-14T05:00:47.306Z,0.50
2023-04-14T05:03:15.250Z,0.40
2023-04-14T05:05:43.225Z,0.40
2023-04-14T05:08:14.539Z,0.40
2023-04-14T05:10:43.407Z,0.30
2023-04-14T05:13:11.430Z,0.30
2023-04-14T05:15:39.636Z,0.30
2023-04-14T05:18:07.748Z,0.40
2023-04-14T05:20:36.826Z,0.40
2023-04-14T05:23:05.455Z,0.50
2023-04-14T05:25:34.828Z,0.40
2023-04-14T05:28:02.752Z,0.30
2023-04-14T05:30:30.797Z,0.40
2023-04-14T05:32:58.874Z,0.40
2023-04-14T05:35:26.801Z,0.40
2023-04-14T05:37:54.817Z,0.50
2023-04-14T05:40:23.278Z,0.40
2023-04-14T05:42:53.247Z,0.50
2023-04-14T05:45:21.922Z,0.50
2023-04-14T05:47:49.912Z,0.60
2023-04-14T05:50:18.131Z,0.50
2023-04-14T05:52:46.094Z,0.60
2023-04-14T05:55:14.095Z,0.80
2023-04-14T05:57:42.244Z,0.50
2023-04-14T06:00:13.283Z,0.40
2023-04-14T06:02:42.326Z,0.30
2023-04-14T06:05:11.152Z,0.30
2023-04-14T06:07:41.788Z,0.10
2023-04-14T06:10:11.097Z,0.10
2023-04-14T06:12:39.103Z,0.20
2023-04-14T06:15:08.097Z,0.30
2023-04-14T06:17:37.447Z,0.30
2023-04-14T06:20:06.228Z,0.40
2023-04-14T06:22:34.257Z,0.30
2023-04-14T06:25:02.273Z,0.20
2023-04-14T06:27:30.666Z,0.20
2023-04-14T06:30:00.922Z,0.40
2023-04-14T06:32:28.907Z,0.40
2023-04-14T06:34:58.368Z,0.50
2023-04-14T06:37:26.589Z,0.50
2023-04-14T06:39:54.605Z,0.50
2023-04-14T06:42:22.584Z,0.40
2023-04-14T06:44:50.587Z,0.40
2023-04-14T06:47:20.843Z,0.40
2023-04-14T06:49:49.025Z,0.50
2023-04-14T06:52:18.441Z,0.40
2023-04-14T06:54:46.846Z,0.40
2023-04-14T06:57:14.783Z,0.40
2023-04-14T06:59:42.762Z,0.10
2023-04-14T07:02:10.958Z,0.30
2023-04-14T07:04:39.297Z,0.30
2023-04-14T07:07:08.543Z,0.20
2023-04-14T07:09:38.037Z,0.30
2023-04-14T07:12:06.577Z,0.40
2023-04-14T07:14:34.526Z,0.40
2023-04-14T07:17:02.531Z,0.20
2023-04-14T07:19:30.559Z,0.40
2023-04-14T07:21:58.643Z,0.40
2023-04-14T07:24:26.703Z,0.30
2023-04-14T07:26:56.155Z,0.40
2023-04-14T07:29:24.125Z,0.50
2023-04-14T07:31:52.171Z,0.60
2023-04-14T07:34:20.818Z,0.70
2023-04-14T07:36:49.315Z,0.70
2023-04-14T07:39:17.441Z,0.80
2023-04-14T07:41:45.380Z,0.70
2023-04-14T07:44:14.808Z,0.80
2023-04-14T07:46:42.840Z,0.70
2023-04-14T07:49:11.214Z,0.70
2023-04-14T07:51:39.222Z,0.80
2023-04-14T07:54:07.444Z,0.70
2023-04-14T07:56:35.430Z,0.80
2023-04-14T07:59:03.577Z,0.50
2023-04-14T08:01:33.009Z,0.40
2023-04-14T08:04:01.287Z,0.40
2023-04-14T08:06:29.662Z,0.20
2023-04-14T08:08:57.749Z,0.30
2023-04-14T08:11:25.914Z,0.30
2023-04-14T08:13:53.912Z,0.30
2023-04-14T08:16:22.583Z,0.30
2023-04-14T08:18:53.175Z,0.50
2023-04-14T08:21:22.076Z,0.70
2023-04-14T08:23:50.030Z,0.80
2023-04-14T08:26:18.028Z,0.80
2023-04-14T08:28:47.000Z,0.90
2023-04-14T08:31:15.038Z,0.80
2023-04-14T08:33:42.971Z,1.00
2023-04-14T08:36:12.396Z,1.00
2023-04-14T08:38:40.583Z,1.00
2023-04-14T08:41:09.944Z,1.00
2023-04-14T08:43:37.882Z,1.10
2023-04-14T08:46:07.170Z,1.30
2023-04-14T08:48:37.612Z,1.30
2023-04-14T08:51:13.795Z,1.30
2023-04-14T08:53:45.640Z,1.40
2023-04-14T08:56:16.276Z,1.50
2023-04-14T08:58:44.706Z,1.50
2023-04-14T09:01:13.224Z,1.50
2023-04-14T09:03:42.108Z,1.60
2023-04-14T09:06:10.754Z,1.70
2023-04-14T09:08:39.465Z,1.60
2023-04-14T09:11:08.803Z,1.70
2023-04-14T09:13:38.345Z,1.70
2023-04-14T09:16:08.062Z,1.90
2023-04-14T09:18:36.448Z,1.70
2023-04-14T09:21:50.856Z,1.80
2023-04-14T09:23:53.159Z,1.90
2023-04-14T09:26:22.586Z,1.80
2023-04-14T09:28:50.747Z,1.90
2023-04-14T09:31:20.669Z,1.70
2023-04-14T09:33:51.161Z,1.70
2023-04-14T09:36:20.714Z,1.20
2023-04-14T09:38:50.530Z,0.90
2023-04-14T09:41:19.273Z,1.10
2023-04-14T09:43:48.631Z,1.30
2023-04-14T09:46:17.100Z,1.50
2023-04-14T09:48:52.565Z,1.50
2023-04-14T09:51:24.386Z,1.60
2023-04-14T09:53:54.427Z,1.60
2023-04-14T09:56:27.225Z,1.70
2023-04-14T09:58:59.808Z,1.60
2023-04-14T10:01:31.552Z,1.70
2023-04-14T10:04:01.253Z,1.70
2023-04-14T10:06:31.338Z,1.60
2023-04-14T10:08:59.882Z,1.40
2023-04-14T10:11:29.959Z,1.40
2023-04-14T10:14:01.053Z,1.40
2023-04-14T10:16:29.254Z,1.50
2023-04-14T10:18:58.317Z,1.80
2023-04-14T10:21:27.755Z,1.80
2023-04-14T10:23:57.323Z,1.80
2023-04-14T10:26:25.786Z,1.90
2023-04-14T10:28:55.534Z,2.00
2023-04-14T10:31:28.749Z,2.00
2023-04-14T10:33:57.351Z,1.90
2023-04-14T10:36:26.428Z,1.80
2023-04-14T10:39:00.892Z,1.80
2023-04-14T10:41:37.312Z,1.60
2023-04-14T10:44:05.444Z,1.40
2023-04-14T10:46:45.074Z,1.60
2023-04-14T10:49:13.324Z,1.50
2023-04-14T10:51:41.790Z,1.60
2023-04-14T10:54:17.262Z,1.80
2023-04-14T10:57:10.198Z,1.80
2023-04-14T10:59:42.940Z,1.70
2023-04-14T11:02:30.029Z,1.60
2023-04-14T11:05:03.980Z,1.60
2023-04-14T11:07:33.017Z,1.60
2023-04-14T11:10:22.257Z,1.80
2023-04-14T11:12:56.157Z,1.80
2023-04-14T11:15:24.874Z,1.90
2023-04-14T11:17:55.069Z,1.80
2023-04-14T11:20:23.904Z,1.70
2023-04-14T11:22:54.065Z,1.80
2023-04-14T11:25:24.749Z,1.50
2023-04-14T11:27:53.237Z,1.50
2023-04-14T11:30:22.425Z,1.30
2023-04-14T11:32:52.208Z,0.90
2023-04-14T11:35:24.048Z,0.90
2023-04-14T11:37:54.806Z,1.00
2023-04-14T11:40:23.945Z,1.00
2023-04-14T11:42:54.704Z,1.10
2023-04-14T11:45:23.233Z,1.30
2023-04-14T11:48:01.766Z,1.40
2023-04-14T11:50:32.658Z,1.50
2023-04-14T11:53:00.926Z,1.40
2023-04-14T11:55:29.622Z,1.30
2023-04-14T11:57:58.087Z,0.90
2023-04-14T12:00:26.325Z,1.10
2023-04-14T12:02:54.618Z,1.10
2023-04-14T12:05:25.410Z,1.00
2023-04-14T12:07:59.748Z,0.90
2023-04-14T12:10:28.573Z,1.20
2023-04-14T12:13:03.159Z,1.20
2023-04-14T12:15:32.572Z,1.00
2023-04-14T12:18:01.303Z,1.10
2023-04-14T12:20:30.442Z,1.20
2023-04-14T12:23:05.438Z,0.80
2023-04-14T12:25:33.881Z,1.10
2023-04-14T12:28:05.893Z,1.30
2023-04-14T12:30:34.030Z,1.50
2023-04-14T12:33:09.494Z,1.60
2023-04-14T12:35:37.682Z,1.50
2023-04-14T12:38:13.422Z,1.60
2023-04-14T12:40:43.879Z,1.70
2023-04-14T12:43:12.069Z,1.80
2023-04-14T12:45:44.637Z,2.00
2023-04-14T12:48:13.501Z,2.00
2023-04-14T12:50:41.713Z,1.90
2023-04-14T12:53:27.432Z,2.10
2023-04-14T12:56:08.740Z,2.00
2023-04-14T12:58:37.719Z,2.10
2023-04-14T13:01:07.169Z,2.20
2023-04-14T13:03:44.726Z,2.30
2023-04-14T13:06:16.209Z,2.20
2023-04-14T13:08:46.312Z,2.10
2023-04-14T13:11:14.597Z,1.80
2023-04-14T13:13:42.735Z,2.20
2023-04-14T13:16:15.260Z,2.10
2023-04-14T13:18:44.261Z,2.20
2023-04-14T13:21:12.676Z,2.20
2023-04-14T13:23:40.963Z,2.30
2023-04-14T13:26:10.594Z,2.10
2023-04-14T13:28:38.628Z,2.30
2023-04-14T13:31:06.876Z,2.30
2023-04-14T13:33:35.008Z,2.30
2023-04-14T13:36:03.408Z,2.10
2023-04-14T13:38:31.656Z,2.10
2023-04-14T13:40:59.686Z,2.30
2023-04-14T13:43:29.954Z,2.30
2023-04-14T13:45:58.974Z,1.90
2023-04-14T13:48:27.205Z,1.80
2023-04-14T13:50:56.087Z,2.00
2023-04-14T13:53:24.178Z,2.10
2023-04-14T13:55:52.283Z,2.10
2023-04-14T13:58:20.316Z,2.10
2023-04-14T14:00:49.764Z,2.30
2023-04-14T14:03:17.907Z,2.50
2023-04-14T14:05:46.132Z,2.40
2023-04-14T14:08:15.833Z,2.50
2023-04-14T14:10:43.955Z,2.50
2023-04-14T14:13:11.879Z,2.60
2023-04-14T14:15:39.864Z,2.70
2023-04-14T14:18:09.274Z,2.50
2023-04-14T14:20:37.337Z,2.60
2023-04-14T14:23:05.558Z,2.60
2023-04-14T14:25:33.534Z,2.70
2023-04-14T14:28:01.997Z,2.70
2023-04-14T14:30:30.189Z,2.70
2023-04-14T14:32:58.255Z,2.60
2023-04-14T14:35:27.885Z,2.70
2023-04-14T14:37:56.041Z,2.80
2023-04-14T14:40:24.113Z,2.90
2023-04-14T14:42:52.547Z,3.00
2023-04-14T14:45:30.264Z,2.70
2023-04-14T14:47:59.360Z,2.60
2023-04-14T14:50:28.753Z,2.70
2023-04-14T14:52:57.124Z,2.90
2023-04-14T14:55:25.657Z,2.90
2023-04-14T14:57:53.647Z,3.10
2023-04-14T15:00:21.793Z,3.10
2023-04-14T15:02:50.133Z,3.00
2023-04-14T15:05:18.746Z,3.20
2023-04-14T15:07:48.110Z,3.30
2023-04-14T15:10:16.210Z,3.20
2023-04-14T15:12:44.417Z,3.20
2023-04-14T15:15:13.184Z,3.30
2023-04-14T15:17:41.274Z,3.20
2023-04-14T15:20:10.212Z,3.30
2023-04-14T15:22:38.196Z,3.40
2023-04-14T15:25:09.082Z,3.40
2023-04-14T15:27:37.258Z,3.10
2023-04-14T15:30:06.129Z,3.30
2023-04-14T15:32:34.154Z,3.30
2023-04-14T15:35:02.314Z,3.40
2023-04-14T15:37:30.400Z,3.30
2023-04-14T15:39:58.608Z,3.10
2023-04-14T15:42:28.260Z,3.30
2023-04-14T15:44:56.254Z,3.50
2023-04-14T15:47:24.261Z,3.30
2023-04-14T15:49:58.050Z,3.40
2023-04-14T15:52:38.106Z,3.20
2023-04-14T15:55:07.303Z,3.30
2023-04-14T15:57:37.111Z,3.40
2023-04-14T16:00:07.548Z,3.40
2023-04-14T16:02:36.264Z,3.50
2023-04-14T16:05:05.803Z,3.20
2023-04-14T16:07:33.996Z,3.30
2023-04-14T16:10:02.271Z,3.30
2023-04-14T16:12:30.273Z,3.40
2023-04-14T16:14:59.583Z,3.10
2023-04-14T16:17:27.962Z,3.30
2023-04-14T16:19:55.943Z,3.30
2023-04-14T16:22:24.030Z,3.40
2023-04-14T16:24:52.172Z,3.30
2023-04-14T16:27:20.248Z,3.20
2023-04-14T16:29:48.366Z,3.20
2023-04-14T16:32:18.514Z,3.40
2023-04-14T16:34:46.702Z,3.40
2023-04-14T16:37:14.702Z,3.20
2023-04-14T16:39:42.799Z,2.90
2023-04-14T16:42:10.766Z,2.70
2023-04-14T16:44:38.762Z,3.00
2023-04-14T16:47:06.758Z,3.00
2023-04-14T16:49:36.329Z,3.10
2023-04-14T16:52:04.606Z,3.00
2023-04-14T16:54:32.709Z,3.20
2023-04-14T16:57:00.739Z,3.30
2023-04-14T16:59:28.822Z,3.30
2023-04-14T17:01:57.608Z,3.30
2023-04-14T17:04:26.246Z,3.20
2023-04-14T17:06:56.269Z,3.30
2023-04-14T17:09:25.056Z,3.30
2023-04-14T17:11:53.150Z,3.30
2023-04-14T17:14:23.263Z,3.10
2023-04-14T17:16:51.579Z,3.30
2023-04-14T17:19:19.730Z,3.20
2023-04-14T17:21:49.538Z,3.30
2023-04-14T17:24:19.114Z,3.40
2023-04-14T17:26:47.295Z,3.30
2023-04-14T17:29:16.062Z,3.30
2023-04-14T17:31:44.665Z,3.20
2023-04-14T17:34:13.125Z,3.30
2023-04-14T17:36:41.604Z,3.20
2023-04-14T17:39:10.402Z,3.10
2023-04-14T17:41:39.964Z,3.10
2023-04-14T17:44:08.036Z,3.30
2023-04-14T17:46:36.083Z,3.20
2023-04-14T17:49:04.161Z,3.20
2023-04-14T17:51:32.926Z,3.20
2023-04-14T17:54:01.763Z,3.20
2023-04-14T17:56:31.325Z,3.30
2023-04-14T17:59:01.961Z,3.20
2023-04-14T18:01:30.021Z,3.20
2023-04-14T18:04:00.095Z,2.90
2023-04-14T18:06:28.653Z,3.00
2023-04-14T18:08:56.612Z,3.00
2023-04-14T18:11:24.601Z,3.20
2023-04-14T18:13:53.708Z,3.30
2023-04-14T18:16:23.598Z,3.00
2023-04-14T18:18:51.683Z,2.80
2023-04-14T18:21:19.696Z,2.80
2023-04-14T18:24:47.867Z,3.00
2023-04-14T18:26:35.741Z,3.10
2023-04-14T18:29:04.202Z,3.30
2023-04-14T18:31:33.993Z,3.30
2023-04-14T18:34:05.482Z,3.20
2023-04-14T18:36:34.003Z,3.30
2023-04-14T18:39:02.257Z,3.40
2023-04-14T18:41:30.720Z,3.30
2023-04-14T18:43:58.700Z,3.40
2023-04-14T18:46:27.396Z,3.40
2023-04-14T18:48:56.870Z,3.40
2023-04-14T18:51:25.887Z,3.20
2023-04-14T18:53:54.416Z,3.20
2023-04-14T18:56:22.433Z,3.20
2023-04-14T18:58:51.729Z,3.10
2023-04-14T19:01:19.972Z,3.10
2023-04-14T19:03:48.023Z,3.30
2023-04-14T19:06:17.511Z,3.20
2023-04-14T19:08:48.704Z,3.30
2023-04-14T19:11:16.795Z,3.10
2023-04-14T19:13:44.845Z,3.10
2023-04-14T19:16:13.380Z,3.00
2023-04-14T19:18:41.692Z,2.90
2023-04-14T19:21:10.114Z,3.10
2023-04-14T19:23:40.839Z,3.00
2023-04-14T19:26:11.321Z,3.00
2023-04-14T19:28:40.261Z,2.90
2023-04-14T19:31:08.331Z,3.00
2023-04-14T19:33:36.438Z,3.20
2023-04-14T19:36:04.692Z,3.10
2023-04-14T19:38:33.228Z,3.10
2023-04-14T19:41:02.590Z,3.20
2023-04-14T19:43:30.888Z,3.20
2023-04-14T19:46:03.400Z,3.30
2023-04-14T19:48:31.804Z,3.20
2023-04-14T19:50:59.934Z,3.10
2023-04-14T19:53:28.600Z,3.20
2023-04-14T19:55:58.517Z,3.20
2023-04-14T19:58:30.398Z,3.10
2023-04-14T20:00:58.777Z,3.20
2023-04-14T20:03:28.242Z,3.20
2023-04-14T20:05:57.703Z,3.20
2023-04-14T20:08:27.233Z,3.10
2023-04-14T20:10:55.835Z,3.10
2023-04-14T20:13:27.528Z,3.20
2023-04-14T20:15:57.034Z,3.20
2023-04-14T20:18:26.261Z,3.20
2023-04-14T20:20:55.298Z,3.30
2023-04-14T20:23:23.600Z,3.40
2023-04-14T20:25:52.849Z,3.20
2023-04-14T20:28:23.214Z,3.40
2023-04-14T20:30:53.617Z,3.30
2023-04-14T20:33:23.254Z,3.40
2023-04-14T20:35:53.317Z,3.20
2023-04-14T20:38:22.371Z,3.40
2023-04-14T20:40:50.440Z,3.30
2023-04-14T20:43:18.442Z,3.10
2023-04-14T20:45:49.285Z,3.00
2023-04-14T20:48:17.475Z,2.90
2023-04-14T20:50:49.601Z,2.90
2023-04-14T20:53:17.977Z,3.10
2023-04-14T20:55:46.012Z,2.90
2023-04-14T20:58:14.047Z,3.00
2023-04-14T21:00:42.060Z,3.00
2023-04-14T21:03:11.223Z,3.00
2023-04-14T21:05:39.368Z,3.10
2023-04-14T21:08:09.377Z,2.90
2023-04-14T21:11:01.959Z,3.10
2023-04-14T21:15:40.442Z,3.10
2023-04-14T21:16:14.617Z,3.00
2023-04-14T21:18:42.705Z,3.00
2023-04-14T21:21:13.424Z,2.90
2023-04-14T21:23:42.903Z,3.00
2023-04-14T21:26:10.887Z,2.90
2023-04-14T21:28:38.858Z,2.90
2023-04-14T21:31:07.567Z,2.90
2023-04-14T21:33:37.037Z,3.20
2023-04-14T21:36:05.149Z,3.10
2023-04-14T21:38:33.474Z,3.10
2023-04-14T21:41:02.952Z,3.20
2023-04-14T21:43:30.996Z,3.20
2023-04-14T21:45:58.990Z,3.10
2023-04-14T21:48:27.178Z,3.00
2023-04-14T21:50:55.241Z,3.00
2023-04-14T21:53:23.382Z,3.00
2023-04-14T21:56:09.278Z,3.00
2023-04-14T21:58:40.240Z,3.20
2023-04-14T22:01:09.530Z,3.20
2023-04-14T22:03:40.150Z,3.10
2023-04-14T22:06:09.847Z,3.30
2023-04-14T22:08:38.109Z,3.40
2023-04-14T22:11:06.965Z,3.30
2023-04-14T22:13:35.093Z,3.20
2023-04-14T22:16:05.141Z,3.20
2023-04-14T22:18:33.195Z,3.20
2023-04-14T22:21:01.481Z,3.10
2023-04-14T22:23:29.521Z,3.30
2023-04-14T22:25:58.135Z,3.20
2023-04-14T22:28:26.293Z,3.20
2023-04-14T22:30:54.627Z,3.30
2023-04-14T22:33:23.999Z,3.50
2023-04-14T22:35:52.150Z,3.20
2023-04-14T22:38:20.133Z,3.40
2023-04-14T22:40:49.817Z,3.40
2023-04-14T22:43:19.916Z,3.60
2023-04-14T22:45:48.269Z,3.80
2023-04-14T22:48:16.377Z,3.90
2023-04-14T22:50:46.241Z,3.90
2023-04-14T22:53:14.257Z,3.90
2023-04-14T22:55:44.256Z,3.40
2023-04-14T22:58:16.646Z,3.30
2023-04-14T23:00:45.484Z,3.30
2023-04-14T23:03:13.746Z,3.20
2023-04-14T23:05:42.002Z,3.20
2023-04-14T23:08:11.346Z,3.30
2023-04-14T23:10:39.371Z,3.50
2023-04-14T23:13:08.167Z,3.70
2023-04-14T23:15:36.264Z,3.80
2023-04-14T23:18:05.573Z,4.00
2023-04-14T23:20:33.636Z,4.00
2023-04-14T23:23:02.623Z,4.10
2023-04-14T23:25:32.205Z,4.20
2023-04-14T23:28:00.231Z,4.30
2023-04-14T23:30:28.733Z,4.30
2023-04-14T23:32:56.753Z,4.40
2023-04-14T23:35:27.142Z,4.40
2023-04-14T23:37:56.489Z,4.40
2023-04-14T23:40:24.505Z,4.40
2023-04-14T23:42:58.890Z,4.40
2023-04-14T23:45:27.284Z,4.30
2023-04-14T23:47:57.244Z,4.30
2023-04-14T23:51:01.051Z,4.30
2023-04-14T23:53:20.538Z,4.20
2023-04-14T23:55:49.621Z,4.30
2023-04-14T23:58:26.425Z,4.30
